Benton, CA

8:30 PM PDT on May 29, 2015 (GMT -0700)
Tonopah | | Change Station
CLOSE
Current Station
Airport
Location: Tonopah,
Elevation: 5427 ft
Nearby Weather Stations

Elev 5427 ft 38.05 °N, 117.09 °W | Updated 34 minutes ago

Clear
Clear
78 °F
Feels Like 78 °F
N
10
Wind Variable Wind from South

Today
High -- | Low -- °F
--% Chance of Precip.
Yesterday
High -- | Low -- °F
Precip. -- in
5:35 AM 8:08 PM
Waxing Gibbous, 87% visible
Pressure 29.83 in
Visibility 10.0 miles
Clouds Clear
Dew Point 24 °F
Humidity 14%
Rainfall 0.00 in
Snow Depth Not available.
UV 0 out of 12
Pollen 6.20 out of 12
Air Quality Not available.
Flu Activity Sporadic
METAR KTPH 300256Z AUTO 19009KT 10SM CLR 26/M04 A3005 RMK AO2 SLP099 T02561044 53000

More Conditions Fewer Conditions

Pressure 29.83 in
Visibility 10.0 miles
Clouds Clear
Dew Point 24 °F
Humidity 14%
Rainfall 0.00 in
Snow Depth Not available.
UV 0 out of 12
Pollen 6.20 out of 12
Air Quality Not available.
Flu Activity Sporadic
METAR KTPH 300256Z AUTO 19009KT 10SM CLR 26/M04 A3005 RMK AO2 SLP099 T02561044 53000

More Conditions Fewer Conditions

10-Day Weather Forecast

Almanac

Astronomy

May. 29, 2015 Rise Set
Actual Time
Civil Twilight
Nautical Twilight
Astronomical Twilight
Moon
Length of Visible Light
Length of Day
Tomorrow will be .
, % of the Moon is Illuminated

Today's Extremes

State Highs State Lows

Community

WunderPhotos

Upload Photos

1,825,441 photos uploaded!

WunderBlogs® & News

Nearby

Air Quality

  Air Quality AQ Index Pollutant
Not available.

Snow Depth

Station Depth Elevation

Earthquake Activity

City Distance Mag. Time & Date
Minimum magnitude displayed is 2.5.

Coastal Water Temperatures

Place Temperature

Stations

Nearby Weather Stations

Station Location Temp. Windchill Dew Point Humidity Wind Precip. Elev Updated Type